Portada
METAR-TAF:

METAR-TAF

Aeropuertos :

Aeropuerto Internacional de Damasco

Damasco, Siria

latitud: 33-25N, longitud: 036-31E, altitud: 608 m

Observación

El informe se hizo hace 52 minutos, a las 14:00 UTC
Viento 4 kt del este-noreste
Temperatura 22°C
Humedad 25%
Presión 1024 hPa
Visibilidad 10 km o más
sin nubes por debajo de 1500 m y sin presencia de cumulonimbus.

METAR: OSDI 241400Z 07004KT CAVOK 22/01 Q1024

Hora: 17:52 (14:52 UTC)

Pronóstico

Pronóstico válido del 24 a las 12 UTC al 25 a las 18 UTC
Viento 8 kt del este-sureste
Visibilidad 10 km o más
Escasas nubes a una altura de 3000 ft

TAF: OSDI 2412/2518 12008KT 9999 FEW030

Observaciones y pronósticos meteorológicos de más de 4000 aeropuertos (mensajes METAR y TAF).

Los puntos amarillos y rojos representan las estaciones disponibles.

Ponga el ratón en el punto deseado para ver el nombre de la estación.

Haga clic para ver las observaciones y los pronósticos meteorológicos.

Para cambiar el mapa : haga clic en los botones verdes con una cruz de color negro para hacer un zoom, en el botón verde con un guión para alejar o en las flechas verdes para mapas adyacentes.


METAR-TAF: